• Join FlightAware (Why Join?)
  • Login
  • US Flag 
01:07AM EDT


 

Airport Tracker/Info


-or-


 

Live Flight TrackerFlight Track Log ✈ XSR387 ✈ 25-May-2013 ✈ 3O9 - KAAO

Flight Track Log - Related Links

Times and Time Zones

All times are in EDT time to prevent confusion due to time zone crossing. See the XSR387 flight status page for this flight to view local times or setup timezone preferences in your user account.

Time Position Orientation Groundspeed Altitude Reporting Facility
EDT Latitude Longitude Course Direction KTS MPH feet Rate Location/Type
02:12PM 36.6256 -95.0022 306° West 176 203 6,100  Level Kansas City Center
02:13PM 36.6522 -95.0514 304° West 174 200 7,600 1,320 Climbing Kansas City Center
02:14PM 36.6789 -95.1014 304° West 173 199 8,900 660 Climbing Kansas City Center
02:15PM 36.7092 -95.1583 304° West 184 212 9,000 240 Climbing Kansas City Center
02:16PM 36.7431 -95.2242 303° West 209 241 9,500 1,080 Climbing Kansas City Center
02:17PM 36.7200 -95.1475 306° West  Level FlightAware Approximate
02:17PM 36.7753 -95.2769 307° West 201 231 11,300  Level Kansas City Center
02:18PM 36.8008 -95.3211 306° West 168 193 12,700 1,140 Climbing Kansas City Center
02:19PM 36.8253 -95.3717 301° West 168 193 13,700 600 Climbing Kansas City Center
02:20PM 36.8594 -95.4492 299° West 202 232 14,000 120 Climbing Kansas City Center
02:21PM 36.8958 -95.5256 301° West 245 282 14,000  Level Kansas City Center
02:22PM 36.9350 -95.5994 304° West 253 291 14,000  Level Kansas City Center
02:23PM 36.9747 -95.6728 304° West 254 292 14,000  Level Kansas City Center
02:24PM 37.0128 -95.7467 303° West 254 292 14,000  Level Kansas City Center
02:25PM 37.0494 -95.8211 302° West 252 290 14,000  Level Kansas City Center
02:26PM 37.0867 -95.8956 302° West 252 290 14,000  Level Kansas City Center
02:27PM 37.1250 -95.9700 303° West 253 291 14,000  Level Kansas City Center
02:28PM 37.1678 -96.0606 301° West 252 290 14,000 -240 Level Kansas City Center
02:29PM 37.2067 -96.1347 303° West 254 292 13,600 -540 Descending Kansas City Center
02:30PM 37.2467 -96.2147 302° West 266 306 13,000 -600 Descending Kansas City Center
02:31PM 37.2869 -96.2914 303° West 265 305 12,400 -660 Descending Kansas City Center
02:32PM 37.3258 -96.3669 303° West 258 297 11,700 -660 Descending Kansas City Center
02:33PM 37.3669 -96.4489 302° West 254 292 11,100 -600 Descending Kansas City Center
02:34PM 37.4031 -96.5236 301° West 251 289 10,500 -600 Descending Kansas City Center
02:35PM 37.4331 -96.5844 302° West 252 290 10,100 -540 Descending Kansas City Center
02:35PM 37.4397 -96.5992 300° West 252 290 10,000 -600 Descending Kansas City Center
02:36PM 37.4781 -96.6728 303° West 251 289 9,400 -660 Descending Kansas City Center
02:37PM 37.5153 -96.7478 302° West 248 285 8,800 -660 Descending Kansas City Center
02:38PM 37.5494 -96.8133 303° West 245 282 8,200 -600 Descending Kansas City Center
02:39PM 37.5842 -96.8869 301° West 240 276 7,700 -600 Descending Kansas City Center
02:40PM 37.6244 -96.9706 301° West 240 276 6,900 -1,020 Descending Kansas City Center
02:41PM 37.6533 -97.0292 302° West 235 270 5,700 -1,740 Descending Kansas City Center
02:42PM 37.6836 -97.0983 299° West 229 264 3,800 -1,740 Descending Kansas City Center
02:42PM 37.6928 -97.1164 303° West 232 267 3,500 -720 Descending Kansas City Center
02:43PM 37.7153 -97.1647 300° West 220 253 3,100 -420 Descending Kansas City Center
02:43PM 37.7236 -97.1794 306° West 224 258 3,100  Level Kansas City Center
02:45PM 37.7547 -97.2389 304° West 212 244 3,100  Level Kansas City Center
02:45PM 37.7833 -97.2547 336° Northwest 202 232 3,100 -300 Level Kansas City Center
02:46PM 37.7997 -97.2417 32° Northeast 199 229 2,800 -720 Descending Kansas City Center
02:46PM 37.7939 -97.2133 105° East 142 163 2,400 -720 Descending Kansas City Center
02:47PM 37.7797 -97.2156 187° South 165 190 2,100 -600 Descending Kansas City Center
02:47PM 37.7586 -97.2189 187° South 90 104 1,700 -420 Descending Kansas City Center
02:48PM 37.7464 -97.2217 190° South 139 160 1,700  Level Kansas City Center